createdAt,value
2023-02-17T00:01:24.591Z,34.50
2023-02-17T00:03:53.165Z,34.00
2023-02-17T00:06:23.440Z,34.30
2023-02-17T00:08:50.798Z,34.20
2023-02-17T00:11:18.596Z,34.20
2023-02-17T00:13:45.613Z,33.90
2023-02-17T00:16:23.562Z,34.30
2023-02-17T00:18:55.794Z,34.80
2023-02-17T00:21:24.648Z,35.10
2023-02-17T00:23:52.128Z,35.60
2023-02-17T00:26:20.198Z,35.70
2023-02-17T00:28:47.901Z,35.70
2023-02-17T00:31:20.568Z,36.00
2023-02-17T00:33:47.812Z,36.30
2023-02-17T00:36:17.965Z,36.30
2023-02-17T00:38:45.028Z,36.00
2023-02-17T00:41:11.802Z,36.00
2023-02-17T00:43:38.663Z,36.00
2023-02-17T00:46:06.451Z,36.00
2023-02-17T00:48:33.858Z,36.10
2023-02-17T00:51:00.856Z,36.60
2023-02-17T00:53:28.227Z,37.30
2023-02-17T00:55:55.113Z,37.50
2023-02-17T00:58:22.033Z,37.60
2023-02-17T01:00:48.915Z,38.00
2023-02-17T01:03:16.017Z,38.10
2023-02-17T01:05:44.590Z,38.00
2023-02-17T01:08:11.790Z,37.90
2023-02-17T01:10:40.431Z,37.90
2023-02-17T01:13:07.667Z,38.20
2023-02-17T01:15:39.608Z,38.40
2023-02-17T01:18:06.283Z,38.00
2023-02-17T01:20:37.708Z,37.90
2023-02-17T01:23:05.499Z,37.80
2023-02-17T01:25:36.132Z,37.50
2023-02-17T01:28:03.153Z,37.30
2023-02-17T01:30:29.946Z,36.80
2023-02-17T01:32:56.695Z,36.40
2023-02-17T01:35:23.411Z,35.90
2023-02-17T01:37:50.093Z,35.60
2023-02-17T01:40:20.709Z,35.10
2023-02-17T01:42:47.506Z,34.50
2023-02-17T01:45:19.993Z,34.60
2023-02-17T01:47:54.339Z,34.60
2023-02-17T01:50:25.061Z,35.00
2023-02-17T01:52:54.031Z,35.00
2023-02-17T01:55:22.286Z,35.30
2023-02-17T01:57:51.027Z,35.50
2023-02-17T02:00:19.928Z,35.60
2023-02-17T02:02:49.496Z,34.90
2023-02-17T02:05:18.760Z,34.90
2023-02-17T02:07:48.023Z,34.80
2023-02-17T02:10:16.117Z,34.50
2023-02-17T02:12:43.602Z,34.40
2023-02-17T02:15:14.806Z,34.50
2023-02-17T02:17:50.455Z,34.40
2023-02-17T02:20:41.401Z,34.30
2023-02-17T02:23:29.309Z,34.10
2023-02-17T02:26:19.610Z,34.00
2023-02-17T02:29:14.384Z,34.10
2023-02-17T02:31:59.226Z,34.10
2023-02-17T02:34:47.684Z,34.10
2023-02-17T02:37:20.673Z,33.90
2023-02-17T02:39:50.790Z,34.00
2023-02-17T02:42:23.938Z,33.50
2023-02-17T02:44:51.347Z,33.40
2023-02-17T02:47:50.515Z,32.90
2023-02-17T02:50:45.293Z,32.70
2023-02-17T02:53:11.977Z,32.50
2023-02-17T02:56:07.820Z,32.50
2023-02-17T02:58:53.379Z,31.70
2023-02-17T03:01:38.064Z,31.50
2023-02-17T03:04:15.605Z,31.20
2023-02-17T03:07:01.376Z,31.00
2023-02-17T03:09:29.103Z,30.50
2023-02-17T03:11:57.432Z,30.30
2023-02-17T03:14:24.578Z,30.20
2023-02-17T03:16:52.880Z,30.00
2023-02-17T03:19:23.490Z,29.80
2023-02-17T03:21:57.989Z,29.80
2023-02-17T03:24:24.864Z,29.80
2023-02-17T03:26:51.618Z,29.50
2023-02-17T03:29:18.405Z,29.20
2023-02-17T03:31:45.293Z,29.10
2023-02-17T03:34:12.194Z,29.10
2023-02-17T03:36:39.003Z,29.20
2023-02-17T03:39:05.725Z,29.20
2023-02-17T03:41:32.474Z,29.20
2023-02-17T03:43:59.318Z,29.30
2023-02-17T03:46:26.076Z,29.20
2023-02-17T03:48:52.790Z,29.20
2023-02-17T03:51:21.783Z,29.30
2023-02-17T03:53:49.812Z,29.80
2023-02-17T03:56:17.249Z,29.50
2023-02-17T03:58:44.138Z,29.20
2023-02-17T04:01:12.288Z,29.00
2023-02-17T04:03:39.532Z,29.20
2023-02-17T04:06:07.958Z,29.30
2023-02-17T04:08:35.105Z,29.30
2023-02-17T04:11:03.740Z,29.40
2023-02-17T04:13:30.481Z,29.60
2023-02-17T04:15:57.624Z,29.80
2023-02-17T04:18:24.529Z,29.80
2023-02-17T04:20:51.863Z,30.40
2023-02-17T04:23:18.710Z,29.80
2023-02-17T04:25:46.149Z,29.90
2023-02-17T04:28:15.120Z,29.90
2023-02-17T04:30:46.510Z,30.00
2023-02-17T04:33:13.463Z,30.10
2023-02-17T04:35:40.544Z,30.40
2023-02-17T04:38:08.536Z,30.40
2023-02-17T04:40:35.367Z,30.30
2023-02-17T04:43:02.126Z,30.30
2023-02-17T04:45:29.009Z,30.50
2023-02-17T04:47:55.703Z,30.60
2023-02-17T04:50:22.754Z,30.80
2023-02-17T04:52:49.637Z,30.80
2023-02-17T04:55:16.529Z,31.00
2023-02-17T04:57:43.329Z,31.10
2023-02-17T05:00:11.472Z,31.70
2023-02-17T05:02:38.484Z,32.20
2023-02-17T05:05:05.544Z,32.40
2023-02-17T05:07:32.377Z,32.70
2023-02-17T05:09:59.128Z,32.90
2023-02-17T05:12:25.936Z,32.90
2023-02-17T05:14:52.909Z,33.20
2023-02-17T05:17:19.630Z,33.40
2023-02-17T05:19:46.423Z,33.50
2023-02-17T05:22:13.203Z,33.80
2023-02-17T05:24:39.969Z,34.10
2023-02-17T05:27:06.774Z,34.00
2023-02-17T05:29:33.748Z,34.00
2023-02-17T05:32:00.544Z,33.90
2023-02-17T05:34:27.375Z,34.20
2023-02-17T05:36:54.144Z,35.40
2023-02-17T05:39:20.991Z,36.20
2023-02-17T05:41:47.803Z,36.60
2023-02-17T05:44:14.506Z,37.00
2023-02-17T05:46:41.335Z,37.60
2023-02-17T05:49:08.058Z,38.00
2023-02-17T05:51:34.862Z,38.10
2023-02-17T05:54:01.796Z,38.10
2023-02-17T05:56:28.561Z,37.80
2023-02-17T05:58:55.339Z,37.70
2023-02-17T06:01:22.086Z,37.00
2023-02-17T06:03:49.215Z,36.30
2023-02-17T06:06:15.950Z,36.20
2023-02-17T06:08:42.837Z,35.60
2023-02-17T06:11:09.700Z,35.60
2023-02-17T06:13:36.609Z,35.10
2023-02-17T06:16:03.538Z,35.10
2023-02-17T06:18:30.634Z,34.60
2023-02-17T06:20:58.400Z,34.70
2023-02-17T06:23:26.319Z,34.50
2023-02-17T06:25:54.203Z,34.50
2023-02-17T06:28:21.023Z,34.50
2023-02-17T06:30:47.802Z,34.50
2023-02-17T06:33:14.541Z,34.40
2023-02-17T06:35:41.293Z,34.40
2023-02-17T06:38:08.077Z,34.40
2023-02-17T06:40:34.884Z,34.40
2023-02-17T06:43:01.595Z,34.40
2023-02-17T06:45:28.379Z,34.50
2023-02-17T06:47:55.165Z,34.50
2023-02-17T06:50:21.946Z,34.50
2023-02-17T06:52:48.772Z,34.60
2023-02-17T06:55:15.658Z,34.70
2023-02-17T06:57:42.414Z,34.60
2023-02-17T07:00:09.876Z,34.70
2023-02-17T07:02:40.590Z,34.60
2023-02-17T07:05:08.209Z,34.70
2023-02-17T07:07:34.993Z,34.70
2023-02-17T07:10:03.421Z,34.50
2023-02-17T07:12:30.247Z,34.40
2023-02-17T07:14:57.271Z,34.40
2023-02-17T07:17:24.322Z,34.60
2023-02-17T07:19:51.119Z,34.80
2023-02-17T07:22:17.907Z,34.70
2023-02-17T07:24:44.657Z,34.90
2023-02-17T07:27:11.563Z,35.30
2023-02-17T07:29:38.316Z,35.90
2023-02-17T07:32:05.214Z,35.70
2023-02-17T07:34:32.043Z,35.20
2023-02-17T07:36:58.841Z,35.70
2023-02-17T07:39:26.375Z,36.00
2023-02-17T07:41:53.143Z,36.10
2023-02-17T07:44:19.841Z,36.00
2023-02-17T07:46:46.583Z,35.70
2023-02-17T07:49:14.771Z,35.90
2023-02-17T07:51:41.695Z,35.50
2023-02-17T07:54:08.441Z,35.30
2023-02-17T07:56:35.393Z,34.90
2023-02-17T07:59:02.209Z,34.90
2023-02-17T08:01:29.235Z,35.00
2023-02-17T08:03:56.934Z,34.80
2023-02-17T08:06:25.607Z,34.90
2023-02-17T08:09:11.959Z,34.90
2023-02-17T08:11:57.811Z,34.90
2023-02-17T08:14:26.631Z,34.90
2023-02-17T08:16:53.565Z,35.30
2023-02-17T08:19:20.696Z,36.00
2023-02-17T08:21:47.739Z,36.80
2023-02-17T08:24:16.309Z,37.40
2023-02-17T08:26:43.079Z,37.80
2023-02-17T08:29:09.850Z,37.90
2023-02-17T08:31:37.484Z,37.40
2023-02-17T08:34:09.332Z,39.40
2023-02-17T08:36:39.699Z,40.70
2023-02-17T08:39:12.302Z,41.40
2023-02-17T08:41:39.989Z,41.40
2023-02-17T08:44:18.609Z,40.80
2023-02-17T08:46:48.172Z,41.90
2023-02-17T08:49:17.186Z,42.70
2023-02-17T08:51:44.758Z,43.10
2023-02-17T08:54:12.169Z,42.70
2023-02-17T08:56:40.392Z,42.60
2023-02-17T08:59:08.918Z,41.70
2023-02-17T09:01:36.710Z,40.70
2023-02-17T09:04:05.366Z,40.60
2023-02-17T09:06:46.226Z,40.30
2023-02-17T09:09:15.577Z,40.10
2023-02-17T09:11:43.267Z,39.50
2023-02-17T09:14:10.516Z,39.20
2023-02-17T09:16:39.661Z,38.80
2023-02-17T09:19:07.883Z,38.50
2023-02-17T09:21:34.723Z,38.40
2023-02-17T09:24:01.556Z,38.40
2023-02-17T09:26:28.507Z,38.30
2023-02-17T09:28:55.327Z,37.80
2023-02-17T09:31:25.195Z,37.20
2023-02-17T09:33:52.316Z,36.40
2023-02-17T09:36:22.229Z,36.30
2023-02-17T09:38:50.211Z,36.10
2023-02-17T09:41:22.999Z,35.50
2023-02-17T09:43:51.900Z,35.00
2023-02-17T09:47:00.875Z,34.70
2023-02-17T09:49:35.050Z,34.20
2023-02-17T09:52:31.653Z,33.90
2023-02-17T09:55:30.099Z,33.70
2023-02-17T09:58:39.205Z,34.10
2023-02-17T10:01:12.318Z,33.90
2023-02-17T10:03:46.703Z,34.40
2023-02-17T10:06:24.870Z,33.80
2023-02-17T10:09:00.605Z,33.40
2023-02-17T10:11:30.230Z,33.40
2023-02-17T10:14:02.660Z,33.40
2023-02-17T10:16:36.403Z,33.10
2023-02-17T10:19:25.321Z,32.80
2023-02-17T10:22:27.305Z,32.60
2023-02-17T10:24:54.142Z,32.70
2023-02-17T10:27:28.562Z,33.10
2023-02-17T10:30:22.510Z,32.70
2023-02-17T10:33:01.125Z,32.30
2023-02-17T10:35:49.642Z,32.30
2023-02-17T10:38:18.111Z,32.40
2023-02-17T10:40:51.335Z,32.10
2023-02-17T10:43:31.044Z,32.40
2023-02-17T10:46:00.994Z,32.70
2023-02-17T10:48:39.088Z,33.00
2023-02-17T10:51:06.799Z,33.00
2023-02-17T10:53:40.525Z,33.50
2023-02-17T10:56:14.541Z,33.70
2023-02-17T10:58:53.513Z,33.80
2023-02-17T11:01:20.880Z,34.20
2023-02-17T11:03:47.663Z,34.00
2023-02-17T11:06:22.244Z,34.20
2023-02-17T11:08:48.940Z,33.80
2023-02-17T11:11:27.768Z,33.80
2023-02-17T11:14:06.717Z,33.70
2023-02-17T11:16:45.832Z,33.60
2023-02-17T11:19:29.441Z,33.90
2023-02-17T11:21:59.375Z,34.10
2023-02-17T11:24:27.666Z,34.00
2023-02-17T11:27:01.149Z,33.90
2023-02-17T11:29:29.453Z,34.10
2023-02-17T11:32:09.245Z,34.50
2023-02-17T11:34:39.199Z,34.80
2023-02-17T11:37:11.959Z,34.80
2023-02-17T11:39:40.995Z,34.80
2023-02-17T11:42:24.375Z,34.80
2023-02-17T11:44:52.551Z,34.50
2023-02-17T11:47:40.758Z,34.70
2023-02-17T11:50:13.249Z,34.80
2023-02-17T11:52:52.676Z,34.70
2023-02-17T11:55:38.275Z,34.90
2023-02-17T11:58:13.775Z,35.30
2023-02-17T12:01:05.476Z,35.80
2023-02-17T12:04:12.813Z,36.40
2023-02-17T12:07:02.363Z,36.10
2023-02-17T12:09:50.531Z,36.10
2023-02-17T12:12:24.607Z,36.30
2023-02-17T12:15:12.546Z,36.30
2023-02-17T12:18:11.711Z,36.40
2023-02-17T12:20:38.448Z,36.40
2023-02-17T12:23:19.033Z,36.60
2023-02-17T12:25:55.785Z,36.70
2023-02-17T12:28:40.634Z,36.50
2023-02-17T12:31:46.379Z,36.30
2023-02-17T12:34:24.240Z,36.40
2023-02-17T12:36:51.859Z,36.60
2023-02-17T12:39:30.145Z,36.90
2023-02-17T12:42:13.474Z,36.90
2023-02-17T12:44:47.695Z,36.90
2023-02-17T12:47:29.794Z,37.20
2023-02-17T12:50:06.374Z,37.70
2023-02-17T12:52:44.669Z,37.70
2023-02-17T12:55:46.751Z,37.70
2023-02-17T12:58:18.084Z,37.90
2023-02-17T13:01:09.328Z,37.80
2023-02-17T13:03:37.135Z,37.90
2023-02-17T13:06:18.757Z,38.00
2023-02-17T13:09:17.721Z,38.00
2023-02-17T13:11:45.644Z,37.90
2023-02-17T13:14:25.348Z,37.70
2023-02-17T13:16:52.248Z,37.70
2023-02-17T13:19:30.998Z,37.70
2023-02-17T13:21:59.967Z,38.00
2023-02-17T13:24:50.619Z,38.00
2023-02-17T13:27:35.835Z,38.00
2023-02-17T13:30:41.530Z,38.10
2023-02-17T13:33:20.293Z,38.20
2023-02-17T13:35:47.942Z,38.10
2023-02-17T13:38:30.039Z,38.20
2023-02-17T13:41:04.405Z,38.50
2023-02-17T13:43:39.774Z,39.00
2023-02-17T13:46:08.212Z,39.20
2023-02-17T13:48:36.043Z,39.00
2023-02-17T13:51:05.683Z,38.90
2023-02-17T13:53:37.736Z,39.00
2023-02-17T13:56:10.518Z,39.40
2023-02-17T13:58:40.211Z,39.20
2023-02-17T14:01:13.798Z,39.50
2023-02-17T14:03:40.513Z,39.70
2023-02-17T14:06:12.347Z,40.00
2023-02-17T14:08:40.478Z,40.00
2023-02-17T14:11:22.740Z,39.80
2023-02-17T14:13:52.550Z,39.90
2023-02-17T14:16:40.539Z,39.80
2023-02-17T14:19:19.461Z,40.00
2023-02-17T14:22:04.232Z,40.20
2023-02-17T14:24:37.530Z,40.30
2023-02-17T14:27:09.604Z,40.80
2023-02-17T14:29:40.794Z,40.70
2023-02-17T14:32:25.701Z,40.90
2023-02-17T14:34:52.479Z,41.10
2023-02-17T14:37:31.026Z,41.00
2023-02-17T14:39:57.735Z,41.30
2023-02-17T14:42:24.560Z,41.50
2023-02-17T14:44:51.377Z,41.70
2023-02-17T14:47:18.166Z,41.60
2023-02-17T14:49:44.900Z,42.00
2023-02-17T14:52:21.043Z,42.60
2023-02-17T14:54:48.104Z,42.90
2023-02-17T14:57:16.068Z,43.10
2023-02-17T14:59:43.446Z,43.30
2023-02-17T15:02:21.340Z,43.50
2023-02-17T15:04:48.108Z,43.80
2023-02-17T15:07:17.673Z,43.90
2023-02-17T15:09:46.274Z,44.30
2023-02-17T15:12:18.959Z,44.30
2023-02-17T15:14:47.089Z,44.30
2023-02-17T15:17:15.092Z,44.40
2023-02-17T15:19:44.072Z,44.40
2023-02-17T15:22:14.537Z,44.30
2023-02-17T15:24:41.585Z,44.40
2023-02-17T15:27:29.190Z,44.50
2023-02-17T15:29:58.582Z,44.30
2023-02-17T15:32:25.452Z,44.40
2023-02-17T15:35:00.590Z,44.40
2023-02-17T15:37:27.551Z,44.30
2023-02-17T15:39:54.330Z,44.60
2023-02-17T15:42:21.175Z,44.90
2023-02-17T15:44:49.966Z,45.10
2023-02-17T15:47:19.228Z,45.50
2023-02-17T15:49:46.278Z,45.70
2023-02-17T15:52:14.352Z,45.70
2023-02-17T15:54:42.660Z,45.90
2023-02-17T15:57:20.357Z,45.90
2023-02-17T15:59:47.231Z,46.40
2023-02-17T16:02:22.670Z,46.20
2023-02-17T16:04:50.009Z,46.20
2023-02-17T16:07:16.914Z,46.30
2023-02-17T16:09:43.699Z,46.60
2023-02-17T16:12:26.470Z,46.80
2023-02-17T16:14:53.949Z,47.20
2023-02-17T16:17:21.008Z,47.50
2023-02-17T16:19:47.826Z,47.70
2023-02-17T16:22:14.679Z,47.80
2023-02-17T16:24:41.465Z,48.10
2023-02-17T16:27:11.787Z,48.00
2023-02-17T16:29:38.612Z,48.50
2023-02-17T16:32:05.718Z,49.00
2023-02-17T16:34:33.514Z,49.10
2023-02-17T16:37:03.323Z,49.30
2023-02-17T16:39:30.180Z,49.70
2023-02-17T16:41:56.943Z,49.70
2023-02-17T16:44:24.059Z,50.10
2023-02-17T16:46:53.571Z,50.10
2023-02-17T16:49:32.011Z,50.10
2023-02-17T16:52:07.340Z,50.20
2023-02-17T16:54:35.752Z,50.30
2023-02-17T16:57:02.929Z,50.60
2023-02-17T16:59:29.922Z,50.80
2023-02-17T17:01:56.728Z,50.70
2023-02-17T17:04:24.517Z,51.10
2023-02-17T17:06:52.345Z,51.10
2023-02-17T17:09:22.207Z,51.10
2023-02-17T17:11:49.889Z,51.30
2023-02-17T17:14:16.974Z,51.20
2023-02-17T17:16:51.314Z,51.70
2023-02-17T17:19:18.373Z,51.80
2023-02-17T17:21:45.281Z,51.80
2023-02-17T17:24:12.067Z,51.90
2023-02-17T17:26:45.453Z,52.00
2023-02-17T17:29:14.200Z,52.00
2023-02-17T17:31:41.383Z,52.10
2023-02-17T17:34:08.291Z,52.00
2023-02-17T17:36:43.637Z,52.10
2023-02-17T17:39:22.757Z,52.30
2023-02-17T17:41:50.436Z,52.30
2023-02-17T17:44:18.037Z,53.00
2023-02-17T17:46:45.267Z,52.60
2023-02-17T17:49:13.800Z,52.60
2023-02-17T17:51:41.137Z,52.80
2023-02-17T17:54:08.683Z,52.60
2023-02-17T17:56:38.956Z,52.50
2023-02-17T17:59:06.436Z,52.60
2023-02-17T18:01:34.264Z,52.80
2023-02-17T18:04:01.572Z,52.90
2023-02-17T18:06:41.761Z,53.00
2023-02-17T18:09:17.095Z,53.20
2023-02-17T18:11:50.708Z,53.20
2023-02-17T18:14:17.589Z,53.60
2023-02-17T18:16:47.675Z,53.70
2023-02-17T18:19:17.223Z,53.70
2023-02-17T18:21:44.139Z,53.70
2023-02-17T18:24:11.081Z,53.70
2023-02-17T18:26:37.938Z,53.70
2023-02-17T18:29:05.048Z,53.70
2023-02-17T18:31:31.987Z,53.70
2023-02-17T18:33:58.768Z,53.70
2023-02-17T18:36:27.146Z,53.70
2023-02-17T18:38:54.134Z,54.00
2023-02-17T18:41:39.101Z,53.70
2023-02-17T18:44:06.087Z,53.70
2023-02-17T18:46:33.409Z,54.00
2023-02-17T18:49:00.226Z,54.00
2023-02-17T18:51:27.728Z,54.10
2023-02-17T18:53:56.546Z,54.10
2023-02-17T18:56:26.104Z,54.40
2023-02-17T18:58:55.275Z,54.90
2023-02-17T19:01:24.116Z,54.80
2023-02-17T19:03:51.971Z,55.10
2023-02-17T19:06:21.790Z,55.50
2023-02-17T19:08:49.432Z,55.60
2023-02-17T19:11:18.240Z,55.50
2023-02-17T19:13:45.353Z,55.60
2023-02-17T19:16:15.109Z,55.40
2023-02-17T19:18:42.964Z,55.50
2023-02-17T19:21:16.847Z,55.40
2023-02-17T19:23:43.926Z,55.20
2023-02-17T19:26:12.671Z,55.40
2023-02-17T19:28:40.076Z,55.30
2023-02-17T19:31:16.698Z,55.10
2023-02-17T19:33:45.745Z,55.10
2023-02-17T19:36:15.950Z,55.00
2023-02-17T19:38:42.771Z,55.10
2023-02-17T19:41:11.275Z,55.20
2023-02-17T19:43:38.469Z,55.10
2023-02-17T19:46:05.652Z,55.30
2023-02-17T19:48:33.124Z,55.30
2023-02-17T19:51:02.962Z,55.40
2023-02-17T19:53:31.480Z,55.40
2023-02-17T19:56:15.525Z,55.60
2023-02-17T19:58:43.857Z,55.60
2023-02-17T20:01:13.345Z,55.60
2023-02-17T20:03:40.558Z,55.80
2023-02-17T20:06:17.262Z,56.50
2023-02-17T20:08:45.692Z,55.90
2023-02-17T20:11:12.751Z,56.10
2023-02-17T20:13:45.949Z,55.90
2023-02-17T20:16:15.379Z,56.20
2023-02-17T20:18:46.429Z,55.80
2023-02-17T20:21:15.544Z,55.60
2023-02-17T20:23:42.437Z,55.60
2023-02-17T20:26:16.510Z,55.50
2023-02-17T20:28:43.716Z,55.80
2023-02-17T20:31:12.069Z,55.90
2023-02-17T20:33:40.518Z,56.10
2023-02-17T20:36:08.953Z,56.00
2023-02-17T20:38:37.612Z,56.20
2023-02-17T20:41:06.652Z,56.40
2023-02-17T20:43:34.409Z,56.60
2023-02-17T20:46:02.787Z,56.70
2023-02-17T20:48:29.786Z,56.80
2023-02-17T20:50:57.922Z,56.60
2023-02-17T20:53:25.988Z,56.70
2023-02-17T20:55:53.078Z,56.80
2023-02-17T20:58:20.398Z,57.00
2023-02-17T21:00:47.522Z,56.90
2023-02-17T21:03:14.626Z,56.80
2023-02-17T21:05:41.756Z,57.10
2023-02-17T21:08:09.054Z,57.50
2023-02-17T21:10:35.868Z,57.70
2023-02-17T21:13:02.681Z,58.20
2023-02-17T21:15:29.479Z,58.20
2023-02-17T21:17:56.278Z,58.10
2023-02-17T21:20:23.061Z,58.10
2023-02-17T21:22:50.139Z,58.10
2023-02-17T21:25:16.889Z,58.20
2023-02-17T21:27:43.626Z,58.40
2023-02-17T21:30:11.508Z,58.60
2023-02-17T21:32:38.572Z,58.50
2023-02-17T21:35:06.560Z,58.70
2023-02-17T21:37:34.389Z,58.60
2023-02-17T21:40:01.218Z,58.90
2023-02-17T21:42:46.434Z,59.10
2023-02-17T21:45:13.169Z,59.20
2023-02-17T21:47:39.904Z,59.20
2023-02-17T21:50:07.473Z,59.30
2023-02-17T21:52:34.244Z,59.10
2023-02-17T21:55:01.605Z,59.00
2023-02-17T21:57:28.713Z,58.90
2023-02-17T21:59:55.445Z,59.10
2023-02-17T22:02:22.253Z,59.70
2023-02-17T22:04:49.225Z,59.60
2023-02-17T22:07:16.012Z,59.90
2023-02-17T22:09:42.741Z,59.70
2023-02-17T22:12:09.489Z,60.00
2023-02-17T22:14:36.281Z,60.20
2023-02-17T22:17:03.314Z,60.50
2023-02-17T22:19:31.583Z,60.60
2023-02-17T22:21:58.474Z,61.40
2023-02-17T22:24:27.280Z,61.50
2023-02-17T22:26:54.714Z,62.10
2023-02-17T22:29:21.613Z,62.70
2023-02-17T22:31:50.488Z,62.70
2023-02-17T22:34:17.487Z,63.80
2023-02-17T22:36:44.303Z,63.50
2023-02-17T22:39:11.042Z,64.10
2023-02-17T22:41:39.373Z,64.50
2023-02-17T22:44:06.595Z,65.60
2023-02-17T22:46:34.523Z,65.20
2023-02-17T22:49:01.647Z,65.60
2023-02-17T22:51:31.416Z,65.90
2023-02-17T22:53:59.653Z,66.40
2023-02-17T22:56:26.646Z,66.50
2023-02-17T22:58:57.947Z,67.10
2023-02-17T23:01:25.329Z,67.50
2023-02-17T23:03:54.454Z,67.90
2023-02-17T23:06:25.395Z,68.90
2023-02-17T23:08:53.089Z,69.80
2023-02-17T23:11:44.076Z,70.40
2023-02-17T23:14:12.001Z,70.30
2023-02-17T23:16:38.970Z,71.10
2023-02-17T23:19:07.694Z,72.00
2023-02-17T23:21:34.922Z,72.10
2023-02-17T23:24:02.048Z,71.80
2023-02-17T23:26:28.859Z,72.00
2023-02-17T23:28:56.089Z,71.90
2023-02-17T23:31:22.945Z,72.00
2023-02-17T23:33:49.748Z,71.70
2023-02-17T23:36:16.575Z,71.90
2023-02-17T23:38:43.301Z,71.90
2023-02-17T23:41:11.106Z,71.70
2023-02-17T23:43:37.971Z,71.60
2023-02-17T23:46:05.058Z,70.60
2023-02-17T23:48:31.931Z,70.70
2023-02-17T23:51:00.739Z,70.20
2023-02-17T23:53:28.303Z,70.90
2023-02-17T23:56:06.774Z,69.80
2023-02-17T23:58:34.986Z,69.40
